Time;durP1;ratioP1;P1;durP2;ratioP2;P2;SDS_P1;SDS_P2;PMS_P1;PMS_P2;Temp;Humidity;BMP_temperature;BMP_pressure;BME280_temperature;BME280_humidity;BME280_pressure;Samples;Min_cycle;Max_cycle;Signal;HPM_P1;HPM_P2
2021/05/04 00:00:42;;;;;;;4.35;2.22;;;12.50;99.90;;;11.75;75.84;100831.16;4041059;29;20528;-68
2021/05/04 00:02:43;;;;;;;5.55;2.40;;;12.40;99.90;;;11.81;75.75;100827.88;4040023;29;20041;-67
2021/05/04 00:04:44;;;;;;;5.25;2.28;;;12.50;99.90;;;11.81;75.70;100827.03;4040034;29;20037;-68
2021/05/04 00:06:45;;;;;;;13.18;2.40;;;12.50;99.90;;;11.82;75.85;100818.97;4041235;29;20029;-67
2021/05/04 00:08:46;;;;;;;9.32;2.67;;;12.50;99.90;;;11.78;76.25;100835.28;4040869;29;20025;-68
2021/05/04 00:10:46;;;;;;;8.00;2.20;;;12.40;99.90;;;11.71;76.10;100808.69;4041354;29;20048;-67
2021/05/04 00:12:47;;;;;;;7.53;2.70;;;12.40;99.90;;;11.81;76.44;100827.88;4041024;29;20552;-67
2021/05/04 00:14:48;;;;;;;8.18;3.08;;;12.40;99.90;;;11.85;76.25;100813.34;4041057;29;20057;-67
2021/05/04 00:16:49;;;;;;;9.38;2.42;;;12.50;99.90;;;11.87;76.32;100787.56;4041088;29;20068;-68
2021/05/04 00:18:50;;;;;;;6.35;1.73;;;12.50;99.90;;;11.82;76.60;100815.50;4040979;29;20137;-68
2021/05/04 00:20:51;;;;;;;11.10;3.05;;;12.50;99.90;;;11.82;76.62;100803.09;4024561;29;20044;-67
2021/05/04 00:22:52;;;;;;;8.20;2.55;;;12.40;99.90;;;11.89;76.71;100803.25;4039854;29;20029;-67
2021/05/04 00:24:53;;;;;;;6.43;3.25;;;12.50;99.90;;;11.79;77.45;100798.16;4040849;29;20029;-68
2021/05/04 00:26:54;;;;;;;7.05;2.90;;;12.40;99.90;;;11.83;77.79;100806.53;4039605;29;20059;-68
2021/05/04 00:28:55;;;;;;;4.25;2.17;;;12.50;99.90;;;11.86;77.76;100803.56;4042783;29;20036;-68
2021/05/04 00:30:56;;;;;;;16.40;4.40;;;12.50;99.90;;;11.85;77.76;100791.38;4051885;29;20048;-68
2021/05/04 00:32:57;;;;;;;7.13;2.33;;;12.50;99.90;;;11.89;78.08;100793.50;4046095;29;20413;-68
2021/05/04 00:34:58;;;;;;;10.90;2.75;;;12.50;99.90;;;11.82;78.46;100784.59;4044136;29;20025;-68
2021/05/04 00:36:59;;;;;;;6.13;2.33;;;12.50;99.90;;;11.93;78.30;100778.16;4054536;29;20025;-67
2021/05/04 00:39:00;;;;;;;10.93;2.83;;;12.50;99.90;;;11.83;78.82;100749.22;4043690;29;20040;-67
2021/05/04 00:41:00;;;;;;;14.73;2.80;;;12.50;99.90;;;11.74;79.72;100755.50;4042797;29;20033;-67
2021/05/04 00:43:01;;;;;;;11.73;3.38;;;12.50;99.90;;;11.78;80.45;100779.78;4042520;29;20090;-68
2021/05/04 00:45:05;;;;;;;12.27;3.42;;;12.50;99.90;;;11.77;80.70;100767.59;4044004;29;20059;-67
2021/05/04 00:47:06;;;;;;;18.95;3.90;;;12.50;99.90;;;11.90;80.94;100762.63;4042752;29;20548;-67
2021/05/04 00:49:07;;;;;;;11.95;2.40;;;12.50;99.90;;;11.89;80.81;100772.38;4027234;29;20061;-68
2021/05/04 00:51:08;;;;;;;12.80;2.88;;;12.50;99.90;;;11.77;81.18;100757.81;4043743;29;20033;-67
2021/05/04 00:53:09;;;;;;;12.30;3.50;;;12.50;99.90;;;11.80;81.54;100773.34;4043667;29;20029;-67
2021/05/04 00:55:11;;;;;;;8.32;2.28;;;12.50;99.90;;;11.79;81.59;100763.78;4042552;29;20565;-67
2021/05/04 00:57:12;;;;;;;8.82;3.05;;;12.50;99.90;;;11.86;81.38;100746.25;4042596;29;20025;-68
2021/05/04 00:59:15;;;;;;;16.58;3.97;;;12.50;99.90;;;11.90;81.17;100757.34;4026813;29;20072;-68
2021/05/04 01:01:16;;;;;;;9.18;3.55;;;12.50;99.90;;;11.88;81.93;100754.03;4042499;29;20021;-68
2021/05/04 01:03:18;;;;;;;7.03;3.40;;;12.50;99.90;;;11.85;81.94;100749.91;4043648;29;20033;-67
2021/05/04 01:05:19;;;;;;;9.43;2.90;;;12.50;99.90;;;11.91;81.91;100741.34;4042328;29;20088;-67
2021/05/04 01:07:20;;;;;;;14.52;3.28;;;12.60;99.90;;;11.95;82.30;100744.44;4042378;29;20549;-68
2021/05/04 01:09:21;;;;;;;12.02;3.25;;;12.50;99.90;;;11.86;82.46;100733.03;4043362;29;20061;-68
2021/05/04 01:11:22;;;;;;;8.05;2.78;;;12.50;99.90;;;11.85;83.79;100742.00;4043618;29;20470;-68
2021/05/04 01:13:23;;;;;;;13.93;3.13;;;12.50;99.90;;;11.80;85.97;100733.69;4042417;29;20532;-68
2021/05/04 01:15:25;;;;;;;12.75;3.13;;;12.50;99.90;;;11.60;88.08;100756.09;4042089;29;20044;-68
2021/05/04 01:17:26;;;;;;;11.88;3.47;;;12.40;99.90;;;11.52;89.41;100749.00;4042298;29;20036;-68
2021/05/04 01:19:27;;;;;;;13.40;3.53;;;12.30;99.90;;;11.42;91.02;100715.78;4042275;29;20037;-68
2021/05/04 01:21:28;;;;;;;8.65;3.53;;;12.30;99.90;;;11.42;92.29;100727.19;4042095;29;20370;-68
2021/05/04 01:23:28;;;;;;;13.85;4.13;;;12.20;99.90;;;11.41;93.69;100735.28;4041975;29;20029;-67
2021/05/04 01:25:30;;;;;;;9.85;3.25;;;12.20;99.90;;;11.36;94.92;100716.44;4043536;29;20508;-68
2021/05/04 01:27:31;;;;;;;12.57;3.40;;;12.10;99.90;;;11.28;95.67;100719.06;4026799;29;20029;-68
2021/05/04 01:29:32;;;;;;;14.82;4.25;;;12.10;99.90;;;11.30;97.05;100722.34;4049873;29;20407;-68
2021/05/04 01:31:33;;;;;;;12.60;3.92;;;12.00;99.90;;;11.18;97.45;100726.28;4057183;29;20033;-68
2021/05/04 01:33:34;;;;;;;13.10;3.97;;;11.90;99.90;;;11.16;98.81;100709.78;4042154;29;20033;-68
2021/05/04 01:35:35;;;;;;;11.77;3.17;;;11.90;99.90;;;11.18;99.23;100700.72;4044835;29;20033;-68
2021/05/04 01:37:37;;;;;;;11.65;4.28;;;11.90;99.90;;;11.20;99.22;100696.09;4053138;29;20548;-68
2021/05/04 01:39:46;;;;;;;13.93;4.40;;;11.90;99.90;;;11.10;100.00;100704.16;4041686;29;20041;-68
2021/05/04 01:41:47;;;;;;;10.82;3.95;;;11.80;99.90;;;11.14;100.00;100694.09;4043227;29;20068;-68
2021/05/04 01:43:48;;;;;;;12.75;4.20;;;11.80;99.90;;;11.09;100.00;100678.75;4042066;29;20033;-68
2021/05/04 01:45:49;;;;;;;16.25;4.47;;;11.80;99.90;;;11.08;100.00;100678.88;4041994;29;20424;-68
2021/05/04 01:47:50;;;;;;;14.93;3.90;;;11.80;99.90;;;11.03;100.00;100684.66;4057267;29;20033;-68
2021/05/04 01:49:51;;;;;;;13.48;4.22;;;11.80;99.90;;;11.05;100.00;100687.16;4042107;29;20070;-68
2021/05/04 01:51:55;;;;;;;12.25;3.78;;;11.80;99.90;;;11.06;100.00;100692.25;4041988;29;20433;-68
2021/05/04 01:53:57;;;;;;;14.85;4.03;;;11.70;99.90;;;10.85;100.00;100676.03;4041757;29;20049;-68
2021/05/04 01:55:58;;;;;;;12.85;4.82;;;11.70;99.90;;;10.97;100.00;100685.31;4041747;29;20033;-68
2021/05/04 01:57:59;;;;;;;12.77;4.25;;;11.60;99.90;;;10.98;100.00;100680.84;4041682;29;20025;-67
2021/05/04 02:00:00;;;;;;;13.30;4.57;;;11.60;99.90;;;10.86;100.00;100669.78;4042971;29;20067;-68
2021/05/04 02:02:01;;;;;;;18.40;5.72;;;11.60;99.90;;;10.96;100.00;100678.34;4041840;29;20053;-68
2021/05/04 02:04:02;;;;;;;15.48;5.22;;;11.70;99.90;;;11.05;100.00;100676.59;4042785;29;20044;-67
2021/05/04 02:06:03;;;;;;;15.30;4.28;;;11.60;99.90;;;11.05;100.00;100677.41;4041839;29;20025;-68
2021/05/04 02:08:05;;;;;;;17.60;4.72;;;11.60;99.90;;;11.03;100.00;100674.09;4042671;29;20493;-68
2021/05/04 02:10:07;;;;;;;19.58;4.25;;;11.80;99.90;;;11.02;100.00;100675.09;4041567;29;20041;-68
2021/05/04 02:12:08;;;;;;;17.95;4.30;;;11.70;99.90;;;11.14;100.00;100667.69;4042593;29;20033;-68
2021/05/04 02:14:09;;;;;;;16.40;5.05;;;11.80;99.90;;;11.14;100.00;100672.16;4042896;29;20489;-68
2021/05/04 02:16:10;;;;;;;15.88;4.30;;;11.80;99.90;;;11.13;100.00;100673.97;4042758;29;20108;-68
2021/05/04 02:18:11;;;;;;;13.98;4.45;;;11.80;99.90;;;11.16;100.00;100670.19;4042786;29;20032;-67
2021/05/04 02:20:13;;;;;;;15.40;4.63;;;11.80;99.90;;;11.07;100.00;100659.59;4042380;29;20098;-68
2021/05/04 02:22:15;;;;;;;15.32;5.80;;;11.80;99.90;;;11.16;100.00;100668.38;4041655;29;20029;-68
2021/05/04 02:24:15;;;;;;;22.48;4.50;;;11.80;99.90;;;11.10;100.00;100659.28;4041247;29;20051;-68
2021/05/04 02:26:17;;;;;;;16.00;6.65;;;11.90;99.90;;;11.08;100.00;100663.03;4041395;29;20097;-68
2021/05/04 02:28:18;;;;;;;15.38;4.30;;;11.80;99.90;;;11.07;100.00;100656.97;4025723;29;20034;-68
2021/05/04 02:30:20;;;;;;;18.75;4.30;;;11.80;99.90;;;11.16;100.00;100667.53;4039497;29;20064;-68
2021/05/04 02:32:21;;;;;;;11.02;3.42;;;11.80;99.90;;;11.17;100.00;100656.81;4050136;29;20049;-68
2021/05/04 02:34:22;;;;;;;18.13;4.28;;;11.90;99.90;;;11.20;100.00;100647.75;4056683;29;20035;-68
2021/05/04 02:36:23;;;;;;;10.93;4.50;;;11.80;99.90;;;11.23;100.00;100650.06;4052278;29;20040;-68
2021/05/04 02:38:25;;;;;;;13.90;4.93;;;11.80;99.90;;;11.18;100.00;100641.78;4041156;29;20130;-68
2021/05/04 02:40:26;;;;;;;19.05;4.55;;;11.90;99.90;;;11.20;100.00;100658.31;4025607;29;20037;-68
2021/05/04 02:42:27;;;;;;;13.05;3.70;;;11.90;99.90;;;11.14;100.00;100633.38;4042425;29;20037;-68
2021/05/04 02:44:28;;;;;;;14.88;4.60;;;11.80;99.90;;;11.22;100.00;100636.03;4041128;29;20040;-68
2021/05/04 02:46:29;;;;;;;11.82;3.50;;;11.90;99.90;;;11.25;100.00;100635.72;4041270;29;20420;-68
2021/05/04 02:48:33;;;;;;;12.30;4.18;;;11.90;99.90;;;11.20;100.00;100631.91;4056662;29;20040;-67
2021/05/04 02:50:34;;;;;;;18.13;4.57;;;11.90;99.90;;;11.26;100.00;100639.19;4041105;29;20037;-68
2021/05/04 02:52:35;;;;;;;10.57;3.60;;;12.00;99.90;;;11.26;100.00;100634.72;4041854;29;20061;-67
2021/05/04 02:54:36;;;;;;;17.85;4.65;;;11.90;99.90;;;11.30;100.00;100627.28;4040691;29;20521;-68
2021/05/04 02:56:37;;;;;;;13.82;4.15;;;11.90;99.90;;;11.32;100.00;100634.06;4042257;29;20520;-68
2021/05/04 02:58:38;;;;;;;10.30;4.55;;;11.90;99.90;;;11.43;100.00;100627.66;4042194;29;20021;-68
2021/05/04 03:00:39;;;;;;;21.02;5.15;;;12.00;99.90;;;11.40;100.00;100628.81;4041970;29;20489;-67
2021/05/04 03:02:40;;;;;;;15.18;4.32;;;12.00;99.90;;;11.32;100.00;100635.91;4042150;29;20085;-67
2021/05/04 03:04:41;;;;;;;14.40;4.30;;;12.00;99.90;;;11.37;100.00;100626.50;4041896;29;20029;-67
2021/05/04 03:06:42;;;;;;;15.95;4.72;;;12.10;99.90;;;11.44;100.00;100645.16;4025562;29;20021;-68
2021/05/04 03:08:43;;;;;;;13.60;4.28;;;12.10;99.90;;;11.51;100.00;100625.00;4041690;29;20105;-68
2021/05/04 03:10:44;;;;;;;13.82;3.90;;;12.10;99.90;;;11.51;100.00;100636.41;4040883;29;20521;-68
2021/05/04 03:12:45;;;;;;;14.85;4.10;;;12.10;99.90;;;11.49;100.00;100635.75;4041975;29;20037;-68
2021/05/04 03:14:46;;;;;;;14.60;4.10;;;12.10;99.90;;;11.53;100.00;100637.03;4041839;29;20438;-68
2021/05/04 03:16:46;;;;;;;14.85;3.97;;;12.20;99.90;;;11.56;100.00;100625.31;4041737;29;20037;-67
2021/05/04 03:18:48;;;;;;;11.65;3.88;;;12.20;99.90;;;11.52;100.00;100631.94;4041848;29;20068;-68
2021/05/04 03:20:49;;;;;;;20.05;4.68;;;12.20;99.90;;;11.52;100.00;100621.38;4041732;29;20453;-68
2021/05/04 03:22:50;;;;;;;13.82;3.92;;;12.30;99.90;;;11.49;100.00;100634.91;4025179;29;20028;-68
2021/05/04 03:24:51;;;;;;;16.48;4.20;;;12.30;99.90;;;11.53;100.00;100623.84;4040149;29;20081;-68
2021/05/04 03:26:52;;;;;;;16.77;3.90;;;12.20;99.90;;;11.49;100.00;100629.63;4041727;29;20059;-68
2021/05/04 03:28:53;;;;;;;13.15;3.40;;;12.20;99.90;;;11.55;100.00;100626.34;4044370;29;20035;-68
2021/05/04 03:30:53;;;;;;;13.18;3.72;;;12.30;99.90;;;11.56;100.00;100627.97;4055098;29;20064;-68
2021/05/04 03:32:55;;;;;;;17.20;3.95;;;12.20;99.90;;;11.49;100.00;100609.34;4045075;29;20382;-68
2021/05/04 03:34:55;;;;;;;17.33;4.13;;;12.20;99.90;;;11.57;100.00;100613.78;4025061;29;20556;-68
2021/05/04 03:36:57;;;;;;;11.02;3.78;;;12.20;99.90;;;11.69;100.00;100625.66;4051591;29;20057;-68
2021/05/04 03:38:58;;;;;;;12.98;3.65;;;12.30;99.90;;;11.64;100.00;100606.84;4040143;29;20036;-68
2021/05/04 03:40:59;;;;;;;11.52;4.65;;;12.20;99.90;;;11.60;100.00;100624.00;4041501;29;20088;-68
2021/05/04 03:43:00;;;;;;;7.82;3.38;;;12.30;99.90;;;11.47;100.00;100591.97;4041483;29;20033;-68
2021/05/04 03:45:01;;;;;;;13.60;3.67;;;12.30;99.90;;;11.49;100.00;100621.72;4041572;29;20397;-68
2021/05/04 03:47:02;;;;;;;9.05;2.92;;;12.20;99.90;;;11.47;100.00;100611.28;4040302;29;20025;-67
2021/05/04 03:49:04;;;;;;;7.72;2.58;;;12.30;99.90;;;11.50;100.00;100615.41;4040229;29;20029;-68
2021/05/04 03:51:06;;;;;;;10.88;2.40;;;12.20;99.90;;;11.49;100.00;100629.63;4040000;29;20088;-68
2021/05/04 03:53:07;;;;;;;5.75;2.30;;;12.10;99.90;;;11.48;100.00;100612.13;4040160;29;20033;-68
2021/05/04 03:55:10;;;;;;;8.90;2.63;;;12.20;99.90;;;11.58;100.00;100604.88;4040256;29;20524;-68
2021/05/04 03:57:11;;;;;;;8.27;2.22;;;12.30;99.90;;;11.59;100.00;100625.81;4040155;29;20029;-68
2021/05/04 03:59:13;;;;;;;12.77;2.33;;;12.30;99.90;;;11.58;100.00;100623.34;4041130;29;20021;-67
2021/05/04 04:01:14;;;;;;;9.90;3.50;;;12.20;99.90;;;11.47;100.00;100594.63;4041185;29;20497;-68
2021/05/04 04:03:15;;;;;;;7.07;2.17;;;12.20;99.90;;;11.60;100.00;100629.28;4041369;29;20081;-68
2021/05/04 04:05:16;;;;;;;9.23;2.17;;;12.20;99.90;;;11.58;100.00;100616.25;4040481;29;20083;-68
2021/05/04 04:07:17;;;;;;;5.38;2.05;;;12.20;99.90;;;11.50;100.00;100612.78;4041193;29;20033;-68
2021/05/04 04:09:18;;;;;;;4.85;2.30;;;12.20;99.90;;;11.58;100.00;100621.56;4040009;29;20037;-68
2021/05/04 04:11:19;;;;;;;8.82;1.65;;;12.20;99.90;;;11.59;100.00;100623.19;4040166;29;20032;-68
2021/05/04 04:13:20;;;;;;;4.43;1.90;;;12.20;99.90;;;11.61;100.00;100618.56;4039978;29;20037;-68
2021/05/04 04:15:21;;;;;;;6.57;2.42;;;12.30;99.90;;;11.60;100.00;100619.56;4055323;29;20032;-68
2021/05/04 04:17:22;;;;;;;4.80;2.00;;;12.20;99.90;;;11.66;100.00;100623.34;4041280;29;20057;-68
2021/05/04 04:19:23;;;;;;;4.82;2.03;;;12.30;99.90;;;11.57;100.00;100619.88;4041179;29;20406;-68
2021/05/04 04:21:23;;;;;;;5.03;1.80;;;12.20;99.90;;;11.64;100.00;100625.34;4041219;29;20036;-68
2021/05/04 04:23:24;;;;;;;7.80;3.08;;;12.20;99.90;;;11.60;100.00;100624.00;4040925;29;20513;-68
2021/05/04 04:25:26;;;;;;;4.35;1.88;;;12.30;99.90;;;11.65;100.00;100622.53;4041237;29;20157;-68
2021/05/04 04:27:26;;;;;;;11.77;2.40;;;12.20;99.90;;;11.70;100.00;100627.34;4039898;29;20073;-68
2021/05/04 04:29:27;;;;;;;6.90;2.90;;;12.30;99.90;;;11.69;100.00;100625.66;4048171;29;20420;-68
2021/05/04 04:31:28;;;;;;;5.45;2.22;;;12.30;99.90;;;11.68;100.00;100611.63;4055229;29;20039;-68
2021/05/04 04:33:29;;;;;;;5.85;2.20;;;12.40;99.90;;;11.73;100.00;100629.66;4041449;29;20052;-68
2021/05/04 04:35:30;;;;;;;10.32;3.92;;;12.40;99.90;;;11.72;100.00;100617.44;4040392;29;20029;-68
2021/05/04 04:37:31;;;;;;;6.78;2.20;;;12.40;99.90;;;11.78;100.00;100613.28;4050812;29;20501;-68
2021/05/04 04:39:32;;;;;;;11.88;2.45;;;12.40;99.90;;;11.70;100.00;100614.16;4053904;29;20028;-68
2021/05/04 04:41:35;;;;;;;7.75;2.45;;;12.40;99.90;;;11.77;100.00;100615.09;4055485;29;20033;-68
2021/05/04 04:43:36;;;;;;;9.60;3.20;;;12.40;99.90;;;11.79;100.00;100612.31;4056529;29;20029;-68
2021/05/04 04:45:37;;;;;;;9.13;2.47;;;12.30;99.90;;;11.73;100.00;100619.09;4056622;29;20505;-68
2021/05/04 04:47:38;;;;;;;11.68;2.58;;;12.40;99.90;;;11.78;100.00;100611.47;4055293;29;20423;-68
2021/05/04 04:49:39;;;;;;;5.95;2.50;;;12.40;99.90;;;11.89;100.00;100608.50;4055356;29;20033;-68
2021/05/04 04:51:40;;;;;;;8.43;2.90;;;12.40;99.90;;;11.84;100.00;100616.09;4055279;29;20032;-68
2021/05/04 04:53:41;;;;;;;10.82;3.08;;;12.40;99.90;;;11.84;100.00;100610.00;4056210;29;20033;-68
2021/05/04 04:55:42;;;;;;;8.10;2.33;;;12.50;99.90;;;11.82;100.00;100612.81;4056259;29;20511;-68
2021/05/04 04:57:43;;;;;;;10.95;3.13;;;12.40;99.90;;;11.85;100.00;100611.66;4056389;29;20040;-68
2021/05/04 04:59:44;;;;;;;9.48;2.45;;;12.50;99.90;;;11.80;100.00;100617.41;4056355;29;20033;-68
2021/05/04 05:01:45;;;;;;;11.02;3.25;;;12.40;99.90;;;11.87;100.00;100617.59;4056368;29;20033;-68
2021/05/04 05:03:46;;;;;;;8.13;2.90;;;12.40;99.90;;;11.78;100.00;100616.78;4054917;29;20052;-68
2021/05/04 05:05:47;;;;;;;7.10;2.60;;;12.50;99.90;;;11.84;100.00;100610.81;4055096;29;20069;-67
2021/05/04 05:07:48;;;;;;;12.23;2.00;;;12.40;99.90;;;11.89;100.00;100629.63;4055154;29;20081;-68
2021/05/04 05:09:48;;;;;;;13.23;3.40;;;12.50;99.90;;;11.89;100.00;100629.63;4055874;29;20526;-68
2021/05/04 05:11:49;;;;;;;8.88;2.38;;;12.50;99.90;;;11.81;100.00;100624.38;4056031;29;20051;-68
2021/05/04 05:13:50;;;;;;;7.03;2.65;;;12.50;99.90;;;11.85;100.00;100630.97;4056214;29;20048;-68
2021/05/04 05:15:51;;;;;;;9.50;3.28;;;12.40;99.90;;;11.87;100.00;100607.84;4056122;29;20032;-68
2021/05/04 05:17:52;;;;;;;11.30;2.35;;;12.50;99.90;;;11.97;100.00;100620.88;4057921;29;20089;-68
2021/05/04 05:19:53;;;;;;;12.48;3.28;;;12.50;99.90;;;11.97;100.00;100634.94;4057665;29;20028;-68
2021/05/04 05:21:55;;;;;;;11.35;2.53;;;12.50;99.90;;;12.05;100.00;100632.25;4059086;29;20033;-68
2021/05/04 05:23:58;;;;;;;12.00;3.10;;;12.50;99.90;;;12.01;100.00;100625.66;4058813;29;20096;-68
2021/05/04 05:26:03;;;;;;;8.93;2.90;;;12.60;99.90;;;12.03;100.00;100636.91;4057728;29;20032;-68
2021/05/04 05:28:05;;;;;;;8.07;2.55;;;12.50;99.90;;;12.00;100.00;100642.53;4059038;29;20493;-68
2021/05/04 05:30:08;;;;;;;10.30;2.70;;;12.50;99.90;;;12.07;100.00;100648.78;4057373;29;20067;-68
2021/05/04 05:32:09;;;;;;;12.63;2.60;;;12.50;99.90;;;12.12;100.00;100650.94;4051661;29;20025;-68
2021/05/04 05:34:11;;;;;;;11.18;3.17;;;12.50;99.90;;;12.17;100.00;100652.06;4043336;29;20033;-69
2021/05/04 05:36:12;;;;;;;11.00;2.65;;;12.60;99.90;;;12.09;100.00;100648.63;4054387;29;20028;-69
2021/05/04 05:38:13;;;;;;;10.18;3.25;;;12.60;99.90;;;12.10;100.00;100652.91;4057404;29;20609;-69
2021/05/04 05:40:14;;;;;;;8.88;2.03;;;12.60;99.90;;;12.16;100.00;100647.78;4057499;29;20087;-69
2021/05/04 05:42:15;;;;;;;8.98;2.10;;;12.60;99.90;;;11.92;100.00;100650.44;4058739;29;20070;-69
2021/05/04 05:44:16;;;;;;;7.78;2.53;;;12.70;99.90;;;11.97;100.00;100653.44;4053788;29;20071;-70
2021/05/04 05:46:17;;;;;;;10.38;2.40;;;12.60;99.90;;;11.99;100.00;100654.09;4056163;29;21130;-68
2021/05/04 05:48:18;;;;;;;8.70;2.28;;;12.70;99.90;;;11.98;100.00;100659.53;4058199;29;20534;-69
2021/05/04 05:50:19;;;;;;;10.90;3.35;;;12.60;99.90;;;11.95;100.00;100646.63;4058119;29;20032;-70
2021/05/04 05:52:20;;;;;;;10.20;2.67;;;12.70;99.90;;;11.90;100.00;100652.44;4056444;29;20028;-69
2021/05/04 05:54:21;;;;;;;10.23;2.50;;;12.60;99.90;;;11.92;100.00;100652.25;4057868;29;20055;-69
2021/05/04 05:56:22;;;;;;;12.52;3.20;;;12.60;99.90;;;11.84;100.00;100652.28;4058635;29;20036;-69
2021/05/04 05:58:23;;;;;;;14.57;4.07;;;12.60;99.90;;;11.87;100.00;100652.78;4057242;29;20039;-69
2021/05/04 06:00:25;;;;;;;7.32;2.50;;;12.60;99.90;;;11.95;100.00;100649.28;4058342;29;20032;-69
2021/05/04 06:02:26;;;;;;;12.63;3.67;;;12.60;99.90;;;12.02;100.00;100651.09;4058492;29;20065;-69
2021/05/04 06:04:27;;;;;;;10.48;2.88;;;12.60;99.90;;;12.05;100.00;100634.91;4056976;29;20468;-69
2021/05/04 06:06:27;;;;;;;9.20;2.42;;;12.60;99.90;;;11.99;100.00;100617.06;4057909;29;20053;-69
2021/05/04 06:08:29;;;;;;;9.82;2.83;;;12.70;99.90;;;12.07;100.00;100627.63;4055098;29;20052;-70
2021/05/04 06:10:30;;;;;;;8.05;2.67;;;12.70;99.90;;;12.25;100.00;100645.09;4054583;29;20080;-70
2021/05/04 06:12:31;;;;;;;8.23;3.83;;;12.80;99.90;;;12.16;100.00;100639.84;4048757;29;20047;-69
2021/05/04 06:14:32;;;;;;;11.25;3.10;;;12.80;99.90;;;12.23;100.00;100641.81;4050321;29;20032;-69
2021/05/04 06:16:33;;;;;;;8.98;2.95;;;13.00;99.90;;;12.31;100.00;100649.72;4057598;29;20096;-69
2021/05/04 06:18:34;;;;;;;11.35;2.92;;;13.00;99.90;;;12.03;100.00;100642.19;4057660;29;20035;-68
2021/05/04 06:20:35;;;;;;;7.20;3.00;;;13.00;99.90;;;12.06;100.00;100636.56;4056491;29;20061;-69
2021/05/04 06:22:36;;;;;;;14.07;3.53;;;12.90;99.90;;;12.22;100.00;100630.41;4056147;29;20125;-69
2021/05/04 06:24:37;;;;;;;10.07;2.50;;;13.00;99.90;;;12.35;100.00;100657.16;4056247;29;20036;-69
2021/05/04 06:26:38;;;;;;;14.00;4.18;;;13.00;99.90;;;12.35;100.00;100656.31;4057499;29;20025;-68
2021/05/04 06:28:45;;;;;;;11.35;2.83;;;13.00;99.90;;;12.30;100.00;100650.72;4056786;29;20040;-69
2021/05/04 06:30:46;;;;;;;8.95;3.05;;;13.00;99.90;;;12.33;100.00;100658.31;4057370;29;20056;-69
2021/05/04 06:32:48;;;;;;;6.97;2.78;;;13.00;99.90;;;12.15;100.00;100661.19;4044687;29;20047;-70
2021/05/04 06:34:49;;;;;;;10.77;3.50;;;13.00;99.90;;;12.36;100.00;100671.22;4040711;29;20441;-69
2021/05/04 06:36:50;;;;;;;9.45;2.83;;;13.00;99.90;;;12.21;99.85;100671.09;4053266;29;20044;-69
2021/05/04 06:38:50;;;;;;;10.75;3.10;;;12.90;99.90;;;12.31;99.91;100684.09;4040618;29;20055;-69
2021/05/04 06:40:51;;;;;;;7.85;2.97;;;12.90;99.90;;;12.35;99.31;100682.78;4041177;29;20064;-69
2021/05/04 06:42:52;;;;;;;9.30;2.42;;;13.00;99.90;;;12.33;99.46;100674.19;4040627;29;20033;-69
2021/05/04 06:44:53;;;;;;;15.85;3.45;;;13.00;99.90;;;12.30;100.00;100674.53;4040922;29;20037;-69
2021/05/04 06:46:54;;;;;;;13.50;3.80;;;13.00;99.90;;;12.39;99.87;100674.34;4042069;29;20398;-69
2021/05/04 06:48:59;;;;;;;11.38;2.33;;;13.00;99.90;;;12.40;99.59;100659.28;4040839;29;20040;-69
2021/05/04 06:51:00;;;;;;;10.30;3.38;;;13.10;99.90;;;12.44;99.00;100668.53;4040629;29;20517;-70
2021/05/04 06:53:01;;;;;;;11.77;3.90;;;13.00;99.90;;;12.40;99.51;100678.63;4040353;29;20172;-70
2021/05/04 06:55:03;;;;;;;8.38;2.95;;;12.90;99.90;;;12.43;98.68;100674.81;4041964;29;20410;-69
2021/05/04 06:57:04;;;;;;;16.15;2.65;;;13.00;99.90;;;12.16;98.93;100689.25;4040548;29;20037;-71
2021/05/04 06:59:06;;;;;;;13.45;2.90;;;12.90;99.90;;;12.25;99.33;100690.06;4041864;29;20124;-70
2021/05/04 07:01:07;;;;;;;11.35;4.35;;;12.90;99.90;;;12.24;99.26;100675.19;4041960;29;20064;-70
2021/05/04 07:03:08;;;;;;;9.77;2.33;;;12.80;99.90;;;12.37;98.64;100694.84;4041716;29;20040;-70
2021/05/04 07:05:10;;;;;;;10.75;2.55;;;12.90;99.90;;;12.21;99.23;100695.69;4041962;29;20399;-70
2021/05/04 07:07:11;;;;;;;15.50;2.75;;;12.80;99.90;;;12.33;98.82;100698.00;4040455;29;20044;-71
2021/05/04 07:09:12;;;;;;;9.80;2.42;;;12.90;99.90;;;12.45;97.95;100694.00;4041661;29;20049;-71
2021/05/04 07:11:12;;;;;;;10.50;2.90;;;12.90;99.90;;;12.40;98.66;100701.59;4055923;29;20037;-71
2021/05/04 07:13:17;;;;;;;7.13;2.33;;;12.90;99.90;;;12.41;97.84;100705.91;4040411;29;20037;-71
2021/05/04 07:15:19;;;;;;;12.63;2.20;;;13.00;99.90;;;12.46;97.66;100696.47;4041613;29;20036;-71
2021/05/04 07:17:20;;;;;;;10.43;3.17;;;13.10;99.90;;;12.49;97.63;100704.06;4040613;29;20045;-71
2021/05/04 07:19:21;;;;;;;9.20;2.67;;;13.10;99.90;;;12.52;98.28;100698.44;4041653;29;20037;-68
2021/05/04 07:21:23;;;;;;;13.18;3.10;;;13.20;99.90;;;12.61;96.71;100709.81;4041664;29;20084;-68
2021/05/04 07:23:24;;;;;;;12.30;3.30;;;13.30;99.90;;;12.56;97.01;100698.94;4041107;29;20021;-68
2021/05/04 07:25:25;;;;;;;11.80;2.88;;;13.20;99.90;;;12.48;97.37;100706.91;4040504;29;20058;-71
2021/05/04 07:27:26;;;;;;;8.95;3.03;;;13.20;99.90;;;12.59;97.35;100712.66;4041599;29;20033;-68
2021/05/04 07:29:27;;;;;;;13.38;2.75;;;13.30;99.90;;;12.58;96.30;100710.16;4048443;29;20076;-71
2021/05/04 07:31:30;;;;;;;10.68;2.97;;;13.30;99.90;;;12.47;95.18;100715.81;4055455;29;20039;-68
2021/05/04 07:33:31;;;;;;;14.98;3.50;;;13.40;99.90;;;12.14;92.88;100718.50;4041402;29;20366;-68
2021/05/04 07:35:32;;;;;;;12.75;3.22;;;13.40;99.90;;;12.18;93.30;100708.44;4042216;29;20099;-67
2021/05/04 07:37:36;;;;;;;9.45;2.70;;;13.30;99.90;;;12.31;92.41;100718.47;4050708;29;20037;-68
2021/05/04 07:39:37;;;;;;;6.90;2.70;;;13.30;99.90;;;12.50;91.63;100715.47;4040827;29;20446;-67
2021/05/04 07:41:38;;;;;;;8.32;2.80;;;13.30;99.90;;;12.22;91.07;100709.72;4041478;29;20037;-69
2021/05/04 07:43:39;;;;;;;7.75;3.10;;;13.20;99.90;;;12.26;90.14;100715.53;4039773;29;20036;-68
2021/05/04 07:45:40;;;;;;;11.88;2.80;;;13.20;99.90;;;12.32;89.67;100714.84;4041154;29;20033;-68
2021/05/04 07:47:41;;;;;;;10.32;3.03;;;13.20;99.90;;;12.31;89.45;100716.66;4040002;29;20029;-68
2021/05/04 07:49:47;;;;;;;11.85;2.70;;;13.20;99.90;;;12.41;90.22;100721.78;4041333;29;20032;-68
2021/05/04 07:51:48;;;;;;;10.65;3.38;;;13.30;99.90;;;12.15;88.27;100720.19;4041326;29;20036;-68
2021/05/04 07:53:49;;;;;;;9.63;2.50;;;13.20;99.90;;;12.22;85.64;100717.66;4040814;29;20071;-68
2021/05/04 07:55:50;;;;;;;8.52;2.17;;;13.10;99.90;;;12.14;84.74;100710.59;4040983;29;20121;-68
2021/05/04 07:57:51;;;;;;;9.55;3.97;;;13.20;99.90;;;12.20;85.94;100723.13;4039877;29;20033;-68
2021/05/04 07:59:53;;;;;;;10.80;4.10;;;13.10;99.90;;;12.01;85.90;100722.63;4024423;29;20038;-68
2021/05/04 08:01:55;;;;;;;9.98;2.80;;;12.90;99.90;;;12.07;85.55;100716.69;4041178;29;20063;-69
2021/05/04 08:03:56;;;;;;;6.53;2.33;;;12.80;99.90;;;11.99;84.21;100725.47;4042034;29;20393;-67
2021/05/04 08:05:57;;;;;;;6.53;2.95;;;12.80;99.90;;;12.01;85.01;100723.47;4056562;29;20029;-67
2021/05/04 08:07:58;;;;;;;11.90;2.90;;;12.70;99.90;;;12.05;86.03;100726.63;4048732;29;20041;-68
2021/05/04 08:09:59;;;;;;;8.88;3.55;;;12.80;99.90;;;12.08;85.50;100724.47;4041068;29;20033;-68
2021/05/04 08:12:00;;;;;;;11.85;3.50;;;12.80;99.90;;;12.04;85.88;100727.59;4040922;29;20632;-67
2021/05/04 08:14:02;;;;;;;8.05;2.70;;;12.70;99.90;;;11.88;85.77;100709.13;4040949;29;20033;-71
2021/05/04 08:16:07;;;;;;;10.32;3.30;;;12.70;99.90;;;12.10;85.88;100722.47;4039817;29;20036;-68
2021/05/04 08:18:12;;;;;;;6.75;2.40;;;12.80;99.90;;;12.16;86.14;100731.56;4039933;29;20033;-68